Terminal Aerodrome Forecast
Issued by NWS

Home | Current Version | Previous Version | Text Only | Print | Product List | Glossary On
Versions: 1 2 3 4 5 6 7 8 9 10 11 12
000
FTUS42 TJSJ 210500
TAFJMZ
TAF
TJMZ 210530Z 2106/2206 10005KT P6SM FEW035
     FM211530 25009KT P6SM SCT040
     FM212300 10005KT P6SM FEW035
      AMD NOT SKED=

USA.gov is the U.S. government's official web portal to all federal, state and local government web resources and services.